This is the latest recevied weather packets stored in our database for station/object N7SXG. If no packets are shown the sender has not sent any weather packets the latest 10 day(s).
| Time | Temp. | Humidity | Pressure | Rain* | Wind** | Luminosity | Snow |
|---|---|---|---|---|---|---|---|
| 1778201167 | 12.22° C | 49% | 1015.1 hPa | 0 mm | - | - | - |
| 1778200271 | 12.78° C | 48% | 1015 hPa | 0 mm | - | - | - |
| 1778198467 | 13.33° C | 46% | 1014.8 hPa | 0 mm | - | - | - |
| 1778195769 | 14.44° C | 44% | 1014.7 hPa | 0 mm | - | - | - |
| 1778191271 | 15° C | 42% | 1014.9 hPa | 0 mm | - | - | - |
| 1778186771 | 16.67° C | 42% | 1014.9 hPa | 0 mm | - | - | - |
| 1778170565 | 13.33° C | 46% | 1016.5 hPa | 0 mm | - | - | - |
| 1778163358 | 10.56° C | 49% | 1016.3 hPa | 0 mm | - | - | - |
| 1778158857 | 7.22° C | 65% | 1016.4 hPa | 0 mm | - | - | - |
| 1778156161 | 5.56° C | 74% | 1016.2 hPa | 0 mm | - | - | - |
| 1778152556 | 3.89° C | 80% | 1016.1 hPa | 0 mm | - | - | - |
| 1778145395 | 4.44° C | 82% | 1015.4 hPa | 0 mm | - | - | - |
| 1778143558 | 4.44° C | 83% | 1015.3 hPa | 0 mm | - | - | - |
| 1778142656 | 4.44° C | 83% | 1015.3 hPa | 0 mm | - | - | - |
| 1778140861 | 4.44° C | 82% | 1015.5 hPa | 0 mm | - | - | - |
| 1778130957 | 5° C | 77% | 1016.1 hPa | 0 mm | - | - | - |
| 1778128259 | 5.56° C | 75% | 1015.8 hPa | 0 mm | - | - | - |
| 1778125560 | 6.67° C | 74% | 1015.6 hPa | 0 mm | - | - | - |
| 1778123755 | 7.22° C | 72% | 1015.7 hPa | 0 mm | - | - | - |
| 1778121055 | 8.33° C | 68% | 1015.8 hPa | 0 mm | - | - | - |
| 1778119258 | 9.44° C | 64% | 1015.8 hPa | 0 mm | - | - | - |
| 1778117453 | 10.56° C | 62% | 1015.4 hPa | 0 mm | - | - | - |
| 1778113856 | 11.67° C | 59% | 1014.9 hPa | 0 mm | - | - | - |
| 1778103964 | 13.33° C | 58% | 1014.8 hPa | 0 mm | - | - | - |
| 1778100371 | 13.33° C | 55% | 1014.6 hPa | 0 mm | - | - | - |
* Rain latest hour (hover to see other rain measurements)
** Current wind speed in m/s (hover to see current wind gust speed)